Time,TemperatureF,DewpointF,PressureIn,WindDirection,WindDirectionDegrees,WindSpeedMPH,WindSpeedGustMPH,Humidity,HourlyPrecipIn,Conditions,Clouds,dailyrainin,SoftwareType,DateUTC
2013-08-19 00:01:00,62.1,52.2,30.15,SSE,152,0.0,0.0,70,0.00,,---,0.00,VWS V14.01,2013-08-19 04:01:00,
2013-08-19 00:02:00,62.1,52.2,30.15,SSE,152,0.0,0.0,70,0.00,,---,0.00,VWS V14.01,2013-08-19 04:02:00,
2013-08-19 00:07:00,62.1,52.2,30.15,SSE,152,0.0,0.0,70,0.00,,---,0.00,VWS V14.01,2013-08-19 04:07:00,
2013-08-19 00:12:00,61.9,52.0,30.15,SSE,152,0.0,0.0,70,0.00,,---,0.00,VWS V14.01,2013-08-19 04:12:00,
2013-08-19 00:17:00,61.9,52.0,30.15,SSE,152,0.0,0.0,70,0.00,,---,0.00,VWS V14.01,2013-08-19 04:17:00,
2013-08-19 00:22:00,61.7,52.2,30.12,SSE,153,0.0,0.0,71,0.00,,---,0.00,VWS V14.01,2013-08-19 04:22:00,
2013-08-19 00:27:00,61.7,52.2,30.12,SSE,153,0.0,0.0,71,0.00,,---,0.00,VWS V14.01,2013-08-19 04:27:00,
2013-08-19 00:32:00,61.5,52.0,30.12,SSE,152,0.0,0.0,71,0.00,,---,0.00,VWS V14.01,2013-08-19 04:32:00,
2013-08-19 00:37:00,61.3,51.9,30.12,SSE,152,0.0,0.0,71,0.00,,---,0.00,VWS V14.01,2013-08-19 04:37:00,
2013-08-19 00:42:00,61.3,52.2,30.12,SSE,152,0.0,0.0,72,0.00,,---,0.00,VWS V14.01,2013-08-19 04:42:00,
2013-08-19 00:47:00,61.2,52.1,30.12,SSE,152,0.0,0.0,72,0.00,,---,0.00,VWS V14.01,2013-08-19 04:47:00,
2013-08-19 00:52:00,61.0,51.9,30.12,SSE,152,0.0,0.0,72,0.00,,---,0.00,VWS V14.01,2013-08-19 04:52:00,
2013-08-19 00:57:00,61.0,51.9,30.12,SSE,152,0.0,0.0,72,0.00,,---,0.00,VWS V14.01,2013-08-19 04:57:00,
2013-08-19 01:02:00,61.0,51.9,30.12,SSE,152,0.0,0.0,72,0.00,,---,0.00,VWS V14.01,2013-08-19 05:02:00,
2013-08-19 01:07:00,61.0,51.9,30.12,SSE,152,0.0,0.0,72,0.00,,---,0.00,VWS V14.01,2013-08-19 05:07:00,
2013-08-19 01:12:00,61.0,51.9,30.12,SSE,152,0.0,0.0,72,0.00,,---,0.00,VWS V14.01,2013-08-19 05:12:00,
2013-08-19 01:17:00,60.8,51.7,30.12,SSE,152,0.0,0.0,72,0.00,,---,0.00,VWS V14.01,2013-08-19 05:17:00,
2013-08-19 01:22:00,60.8,51.7,30.12,SSE,152,0.0,0.0,72,0.00,,---,0.00,VWS V14.01,2013-08-19 05:22:00,
2013-08-19 01:27:00,60.8,52.1,30.12,SSE,152,0.0,0.0,73,0.00,,---,0.00,VWS V14.01,2013-08-19 05:27:00,
2013-08-19 01:32:00,60.6,51.9,30.12,SSE,152,0.0,0.0,73,0.00,,---,0.00,VWS V14.01,2013-08-19 05:32:00,
2013-08-19 01:37:00,60.6,51.9,30.12,SSE,152,0.0,0.0,73,0.00,,---,0.00,VWS V14.01,2013-08-19 05:37:00,
2013-08-19 01:42:00,60.6,51.9,30.12,SSE,152,0.0,0.0,73,0.00,,---,0.00,VWS V14.01,2013-08-19 05:42:00,
2013-08-19 01:47:00,60.4,51.8,30.12,SSE,152,0.0,0.0,73,0.00,,---,0.00,VWS V14.01,2013-08-19 05:47:00,
2013-08-19 01:52:00,60.4,51.8,30.12,SSE,152,0.0,0.0,73,0.00,,---,0.00,VWS V14.01,2013-08-19 05:52:00,
2013-08-19 01:58:00,60.6,51.9,30.12,SSE,152,0.0,0.0,73,0.00,,---,0.00,VWS V14.01,2013-08-19 05:58:00,
2013-08-19 02:03:00,60.6,51.9,30.12,SSE,152,0.0,0.0,73,0.00,,---,0.00,VWS V14.01,2013-08-19 06:03:00,
2013-08-19 02:08:00,60.6,51.9,30.12,SSE,152,0.0,0.0,73,0.00,,---,0.00,VWS V14.01,2013-08-19 06:08:00,
2013-08-19 02:13:00,60.6,51.9,30.12,SSE,152,0.0,0.0,73,0.00,,---,0.00,VWS V14.01,2013-08-19 06:13:00,
2013-08-19 02:18:00,60.6,51.9,30.12,SSE,152,0.0,0.0,73,0.00,,---,0.00,VWS V14.01,2013-08-19 06:18:00,
2013-08-19 02:23:00,60.6,52.3,30.12,SSE,152,0.0,0.0,74,0.00,,---,0.00,VWS V14.01,2013-08-19 06:23:00,
2013-08-19 02:28:00,60.8,52.5,30.12,SSE,152,0.0,0.0,74,0.00,,---,0.00,VWS V14.01,2013-08-19 06:28:00,
2013-08-19 02:33:00,60.8,52.5,30.12,SSE,152,0.0,0.0,74,0.00,,---,0.00,VWS V14.01,2013-08-19 06:33:00,
2013-08-19 02:38:00,60.6,51.9,30.12,SSE,153,0.0,0.0,73,0.00,,---,0.00,VWS V14.01,2013-08-19 06:38:00,
2013-08-19 02:43:00,60.6,51.9,30.12,SSE,152,0.0,0.0,73,0.00,,---,0.00,VWS V14.01,2013-08-19 06:43:00,
2013-08-19 02:48:00,60.4,52.1,30.12,SSE,152,0.0,0.0,74,0.00,,---,0.00,VWS V14.01,2013-08-19 06:48:00,
2013-08-19 02:53:00,60.4,52.1,30.12,SSE,152,0.0,0.0,74,0.00,,---,0.00,VWS V14.01,2013-08-19 06:53:00,
2013-08-19 02:58:00,60.3,52.0,30.12,SSE,152,0.0,0.0,74,0.00,,---,0.00,VWS V14.01,2013-08-19 06:58:00,
2013-08-19 03:03:00,60.3,52.0,30.12,SSE,152,0.0,0.0,74,0.00,,---,0.00,VWS V14.01,2013-08-19 07:03:00,
2013-08-19 03:08:00,60.3,52.0,30.12,SSE,152,0.0,0.0,74,0.00,,---,0.00,VWS V14.01,2013-08-19 07:08:00,
2013-08-19 03:13:00,60.3,52.0,30.12,SSE,152,0.0,0.0,74,0.00,,---,0.00,VWS V14.01,2013-08-19 07:13:00,
2013-08-19 03:18:00,60.3,52.0,30.12,SSE,152,0.0,0.0,74,0.00,,---,0.00,VWS V14.01,2013-08-19 07:18:00,
2013-08-19 03:23:00,60.3,52.0,30.09,SSE,152,0.0,0.0,74,0.00,,---,0.00,VWS V14.01,2013-08-19 07:23:00,
2013-08-19 03:28:00,60.1,51.8,30.09,SSE,152,0.0,0.0,74,0.00,,---,0.00,VWS V14.01,2013-08-19 07:28:00,
2013-08-19 03:33:00,60.1,52.1,30.09,SSE,152,0.0,0.0,75,0.00,,---,0.00,VWS V14.01,2013-08-19 07:33:00,
2013-08-19 03:38:00,60.1,52.1,30.09,SSE,152,0.0,0.0,75,0.00,,---,0.00,VWS V14.01,2013-08-19 07:38:00,
2013-08-19 03:43:00,60.1,52.1,30.09,SSE,152,0.0,0.0,75,0.00,,---,0.00,VWS V14.01,2013-08-19 07:43:00,
2013-08-19 03:48:00,60.1,52.1,30.09,SSE,152,0.0,0.0,75,0.00,,---,0.00,VWS V14.01,2013-08-19 07:48:00,
2013-08-19 03:53:00,60.1,52.1,30.12,SSE,152,0.0,0.0,75,0.00,,---,0.00,VWS V14.01,2013-08-19 07:53:00,
2013-08-19 03:58:00,60.1,52.1,30.12,SSE,152,0.0,0.0,75,0.00,,---,0.00,VWS V14.01,2013-08-19 07:58:00,
2013-08-19 04:03:00,60.1,52.1,30.12,SSE,152,0.0,0.0,75,0.00,,---,0.00,VWS V14.01,2013-08-19 08:03:00,
2013-08-19 04:08:00,59.9,52.0,30.12,SSE,152,0.0,0.0,75,0.00,,---,0.00,VWS V14.01,2013-08-19 08:08:00,
2013-08-19 04:13:00,59.9,52.3,30.12,SSE,152,0.0,0.0,76,0.00,,---,0.00,VWS V14.01,2013-08-19 08:13:00,
2013-08-19 04:18:00,60.1,52.5,30.12,SSE,152,0.0,0.0,76,0.00,,---,0.00,VWS V14.01,2013-08-19 08:18:00,
2013-08-19 04:23:00,59.9,52.3,30.09,SSE,152,0.0,0.0,76,0.00,,---,0.00,VWS V14.01,2013-08-19 08:23:00,
2013-08-19 04:28:00,59.9,52.3,30.09,SSE,152,0.0,0.0,76,0.00,,---,0.00,VWS V14.01,2013-08-19 08:28:00,
2013-08-19 04:33:00,59.9,52.3,30.09,SSE,152,0.0,0.0,76,0.00,,---,0.00,VWS V14.01,2013-08-19 08:33:00,
2013-08-19 04:38:00,59.9,52.7,30.09,SSE,152,0.0,0.0,77,0.00,,---,0.00,VWS V14.01,2013-08-19 08:38:00,
2013-08-19 04:43:00,59.9,52.7,30.09,SSE,152,0.0,0.0,77,0.00,,---,0.00,VWS V14.01,2013-08-19 08:43:00,
2013-08-19 04:48:00,59.7,52.5,30.09,SSE,152,0.0,0.0,77,0.00,,---,0.00,VWS V14.01,2013-08-19 08:48:00,
2013-08-19 04:53:00,59.7,52.5,30.09,SSE,152,0.0,0.0,77,0.00,,---,0.00,VWS V14.01,2013-08-19 08:53:00,
2013-08-19 04:58:00,59.7,52.5,30.09,SSE,152,0.0,0.0,77,0.00,,---,0.00,VWS V14.01,2013-08-19 08:58:00,
2013-08-19 05:03:00,59.7,52.5,30.09,SSE,152,0.0,0.0,77,0.00,,---,0.00,VWS V14.01,2013-08-19 09:03:00,
2013-08-19 05:08:00,59.7,52.5,30.12,SSE,152,0.0,0.0,77,0.00,,---,0.00,VWS V14.01,2013-08-19 09:08:00,
2013-08-19 05:13:00,59.7,52.5,30.12,SSE,152,0.0,0.0,77,0.00,,---,0.00,VWS V14.01,2013-08-19 09:13:00,
2013-08-19 05:18:00,59.5,52.3,30.12,SSE,152,0.0,0.0,77,0.00,,---,0.00,VWS V14.01,2013-08-19 09:18:00,
2013-08-19 05:23:00,59.5,52.3,30.12,SSE,152,0.0,0.0,77,0.00,,---,0.00,VWS V14.01,2013-08-19 09:23:00,
2013-08-19 05:28:00,59.5,52.3,30.12,SSE,152,0.0,0.0,77,0.00,,---,0.00,VWS V14.01,2013-08-19 09:28:00,
2013-08-19 05:33:00,59.5,52.3,30.12,SSE,153,0.0,0.0,77,0.00,,---,0.00,VWS V14.01,2013-08-19 09:33:00,
2013-08-19 05:38:00,59.5,52.7,30.09,SSE,152,0.0,0.0,78,0.00,,---,0.00,VWS V14.01,2013-08-19 09:38:00,
2013-08-19 05:43:00,59.4,52.5,30.09,SSE,152,0.0,0.0,78,0.00,,---,0.00,VWS V14.01,2013-08-19 09:43:00,
2013-08-19 05:48:00,59.5,52.7,30.09,SSE,152,0.0,0.0,78,0.00,,---,0.00,VWS V14.01,2013-08-19 09:48:00,
2013-08-19 05:53:00,59.5,52.7,30.12,SSE,152,0.0,0.0,78,0.00,,---,0.00,VWS V14.01,2013-08-19 09:53:00,
2013-08-19 05:58:00,59.5,52.7,30.12,SSE,152,0.0,0.0,78,0.00,,---,0.00,VWS V14.01,2013-08-19 09:58:00,
2013-08-19 06:03:00,59.5,52.7,30.12,SSE,152,0.0,0.0,78,0.00,,---,0.00,VWS V14.01,2013-08-19 10:03:00,
2013-08-19 06:08:00,59.5,52.7,30.12,SSE,152,0.0,0.0,78,0.00,,---,0.00,VWS V14.01,2013-08-19 10:08:00,
2013-08-19 06:13:00,59.5,52.7,30.12,SSE,152,0.0,0.0,78,0.00,,---,0.00,VWS V14.01,2013-08-19 10:13:00,
2013-08-19 06:18:00,59.5,52.7,30.12,SSE,152,0.0,0.0,78,0.00,,---,0.00,VWS V14.01,2013-08-19 10:18:00,
2013-08-19 06:23:00,59.5,52.7,30.12,SSE,152,0.0,0.0,78,0.00,,---,0.00,VWS V14.01,2013-08-19 10:23:00,
2013-08-19 06:28:00,59.7,53.2,30.12,SSE,152,0.0,0.0,79,0.00,,---,0.00,VWS V14.01,2013-08-19 10:28:00,
2013-08-19 06:33:00,59.7,53.2,30.12,SSE,152,0.0,0.0,79,0.00,,---,0.00,VWS V14.01,2013-08-19 10:33:00,
2013-08-19 06:38:00,59.7,53.2,30.12,SSE,152,0.0,0.0,79,0.00,,---,0.00,VWS V14.01,2013-08-19 10:38:00,
2013-08-19 06:43:00,59.7,53.2,30.12,SSE,152,0.0,0.0,79,0.00,,---,0.00,VWS V14.01,2013-08-19 10:43:00,
2013-08-19 06:48:00,59.9,53.4,30.12,SSE,152,0.0,0.0,79,0.00,,---,0.00,VWS V14.01,2013-08-19 10:48:00,
2013-08-19 06:53:00,59.9,53.4,30.12,SSE,152,0.0,0.0,79,0.00,,---,0.00,VWS V14.01,2013-08-19 10:53:00,
2013-08-19 06:58:00,59.9,53.4,30.12,SSE,152,0.0,0.0,79,0.00,,---,0.00,VWS V14.01,2013-08-19 10:58:00,
2013-08-19 07:03:00,59.9,53.4,30.12,SSE,152,0.0,0.0,79,0.00,,---,0.00,VWS V14.01,2013-08-19 11:03:00,
2013-08-19 07:08:00,60.1,53.6,30.12,SSE,152,0.0,0.0,79,0.00,,---,0.00,VWS V14.01,2013-08-19 11:08:00,
2013-08-19 07:13:00,60.1,53.6,30.12,SSE,152,0.0,0.0,79,0.00,,---,0.00,VWS V14.01,2013-08-19 11:13:00,
2013-08-19 07:18:00,60.3,53.7,30.12,SSE,152,0.0,0.0,79,0.00,,---,0.00,VWS V14.01,2013-08-19 11:18:00,
2013-08-19 07:23:00,60.6,54.1,30.12,SSE,152,0.0,0.0,79,0.00,,---,0.00,VWS V14.01,2013-08-19 11:23:00,
2013-08-19 07:28:00,60.8,54.3,30.12,SSE,152,0.0,0.0,79,0.00,,---,0.00,VWS V14.01,2013-08-19 11:28:00,
2013-08-19 07:33:00,61.0,54.4,30.12,SSE,152,0.0,0.0,79,0.00,,---,0.00,VWS V14.01,2013-08-19 11:33:00,
2013-08-19 07:38:00,61.2,54.6,30.12,SSE,152,0.0,0.0,79,0.00,,---,0.00,VWS V14.01,2013-08-19 11:38:00,
2013-08-19 07:43:00,61.3,54.8,30.12,SSE,152,0.0,0.0,79,0.00,,---,0.00,VWS V14.01,2013-08-19 11:43:00,
2013-08-19 07:48:00,61.3,54.8,30.12,SSE,152,0.0,0.0,79,0.00,,---,0.00,VWS V14.01,2013-08-19 11:48:00,
2013-08-19 07:53:00,61.5,55.0,30.12,SSE,152,0.0,0.0,79,0.00,,---,0.00,VWS V14.01,2013-08-19 11:53:00,
2013-08-19 07:58:00,61.9,55.3,30.12,SSE,152,0.0,3.6,79,0.00,,---,0.00,VWS V14.01,2013-08-19 11:58:00,
2013-08-19 08:03:00,62.4,55.8,30.12,SSE,152,3.6,3.6,79,0.00,,---,0.00,VWS V14.01,2013-08-19 12:03:00,
2013-08-19 08:08:00,63.1,56.9,30.12,South,181,2.7,3.6,80,0.00,,---,0.00,VWS V14.01,2013-08-19 12:08:00,
2013-08-19 08:13:00,63.5,56.9,30.12,SW,234,4.5,5.4,79,0.00,,---,0.00,VWS V14.01,2013-08-19 12:13:00,
2013-08-19 08:18:00,63.9,57.2,30.12,WSW,242,0.0,4.9,79,0.00,,---,0.00,VWS V14.01,2013-08-19 12:18:00,
2013-08-19 08:23:00,64.2,57.6,30.12,WSW,242,4.0,4.0,79,0.00,,---,0.00,VWS V14.01,2013-08-19 12:23:00,
2013-08-19 08:28:00,64.2,57.6,30.12,WSW,253,3.6,4.9,79,0.00,,---,0.00,VWS V14.01,2013-08-19 12:28:00,
2013-08-19 08:33:00,64.2,57.6,30.12,WSW,252,0.0,4.0,79,0.00,,---,0.00,VWS V14.01,2013-08-19 12:33:00,
2013-08-19 08:38:00,64.2,57.6,30.12,WSW,252,0.0,0.0,79,0.00,,---,0.00,VWS V14.01,2013-08-19 12:38:00,
2013-08-19 08:43:00,64.2,57.2,30.12,WSW,253,0.0,0.0,78,0.00,,---,0.00,VWS V14.01,2013-08-19 12:43:00,
2013-08-19 08:48:00,64.2,57.2,30.12,WSW,253,0.0,0.0,78,0.00,,---,0.00,VWS V14.01,2013-08-19 12:48:00,
2013-08-19 08:53:00,64.4,57.4,30.12,WSW,253,0.0,0.0,78,0.00,,---,0.00,VWS V14.01,2013-08-19 12:53:00,
2013-08-19 08:58:00,64.8,57.8,30.12,WSW,253,0.0,3.1,78,0.00,,---,0.00,VWS V14.01,2013-08-19 12:58:00,
2013-08-19 09:03:00,65.1,58.1,30.12,WSW,252,3.1,3.6,78,0.00,,---,0.00,VWS V14.01,2013-08-19 13:03:00,
2013-08-19 09:08:00,65.5,58.1,30.09,SW,228,4.0,4.0,77,0.00,,---,0.00,VWS V14.01,2013-08-19 13:08:00,
2013-08-19 09:13:00,66.0,58.6,30.09,SW,231,0.0,0.0,77,0.00,,---,0.00,VWS V14.01,2013-08-19 13:13:00,
2013-08-19 09:18:00,66.4,58.6,30.09,SW,234,0.0,0.0,76,0.00,,---,0.00,VWS V14.01,2013-08-19 13:18:00,
2013-08-19 09:23:00,66.7,58.6,30.09,WSW,239,5.4,6.3,75,0.00,,---,0.00,VWS V14.01,2013-08-19 13:23:00,
2013-08-19 09:28:00,67.1,58.2,30.09,WSW,240,2.7,2.7,73,0.00,,---,0.00,VWS V14.01,2013-08-19 13:28:00,
2013-08-19 09:34:00,67.5,58.1,30.09,WSW,240,0.0,0.0,72,0.00,,---,0.00,VWS V14.01,2013-08-19 13:34:00,
2013-08-19 09:39:00,67.6,57.5,30.09,West,278,0.0,0.0,70,0.00,,---,0.00,VWS V14.01,2013-08-19 13:39:00,
2013-08-19 09:44:00,68.0,57.1,30.09,WSW,237,0.0,0.0,68,0.00,,---,0.00,VWS V14.01,2013-08-19 13:44:00,
2013-08-19 09:49:00,68.4,57.0,30.09,SW,236,0.0,0.0,67,0.00,,---,0.00,VWS V14.01,2013-08-19 13:49:00,
2013-08-19 09:54:00,68.5,56.3,30.09,WSW,237,0.0,0.0,65,0.00,,---,0.00,VWS V14.01,2013-08-19 13:54:00,
2013-08-19 09:59:00,68.9,56.2,30.09,WSW,242,2.7,4.0,64,0.00,,---,0.00,VWS V14.01,2013-08-19 13:59:00,
2013-08-19 10:04:00,69.3,55.7,30.09,WSW,242,0.0,2.7,62,0.00,,---,0.00,VWS V14.01,2013-08-19 14:04:00,
2013-08-19 10:09:00,69.6,54.7,30.09,WSW,242,0.0,0.0,59,0.00,,---,0.00,VWS V14.01,2013-08-19 14:09:00,
2013-08-19 10:14:00,69.8,53.9,30.09,WSW,242,0.0,2.7,57,0.00,,---,0.00,VWS V14.01,2013-08-19 14:14:00,
2013-08-19 10:19:00,69.8,53.9,30.09,WSW,242,0.0,2.7,57,0.00,,---,0.00,VWS V14.01,2013-08-19 14:19:00,
2013-08-19 10:24:00,69.8,53.9,30.09,WSW,242,0.0,2.7,57,0.00,,---,0.00,VWS V14.01,2013-08-19 14:24:00,
2013-08-19 10:29:00,71.2,53.8,30.09,WSW,248,0.0,2.7,54,0.00,,---,0.00,VWS V14.01,2013-08-19 14:29:00,
2013-08-19 10:34:00,71.2,53.8,30.09,WSW,248,0.0,2.7,54,0.00,,---,0.00,VWS V14.01,2013-08-19 14:34:00,
2013-08-19 10:39:00,71.2,53.8,30.09,WSW,248,0.0,2.7,54,0.00,,---,0.00,VWS V14.01,2013-08-19 14:39:00,
2013-08-19 10:44:00,72.0,49.5,30.09,West,281,0.0,2.7,45,0.00,,---,0.00,VWS V14.01,2013-08-19 14:44:00,
2013-08-19 10:49:00,72.0,49.5,30.09,West,281,0.0,2.7,45,0.00,,---,0.00,VWS V14.01,2013-08-19 14:49:00,
2013-08-19 10:54:00,72.0,49.5,30.09,West,281,0.0,2.7,45,0.00,,---,0.00,VWS V14.01,2013-08-19 14:54:00,
2013-08-19 10:59:00,73.2,48.8,30.09,WNW,293,0.0,2.7,42,0.00,,---,0.00,VWS V14.01,2013-08-19 14:59:00,
2013-08-19 11:04:00,73.2,48.8,30.09,WNW,293,0.0,2.7,42,0.00,,---,0.00,VWS V14.01,2013-08-19 15:04:00,
2013-08-19 11:09:00,73.2,48.8,30.09,WNW,293,0.0,2.7,42,0.00,,---,0.00,VWS V14.01,2013-08-19 15:09:00,
2013-08-19 11:14:00,73.9,46.0,30.09,WNW,290,0.0,2.7,37,0.00,,---,0.00,VWS V14.01,2013-08-19 15:14:00,
2013-08-19 11:19:00,75.0,44.0,30.09,SW,231,3.6,4.9,33,0.00,,---,0.00,VWS V14.01,2013-08-19 15:19:00,
2013-08-19 11:24:00,75.6,43.7,30.09,SW,228,0.0,0.0,32,0.00,,---,0.00,VWS V14.01,2013-08-19 15:24:00,
2013-08-19 11:29:00,75.7,43.8,30.09,North,9,0.0,5.8,32,0.00,,---,0.00,VWS V14.01,2013-08-19 15:29:00,
2013-08-19 11:34:00,75.7,43.8,30.09,North,9,0.0,5.8,32,0.00,,---,0.00,VWS V14.01,2013-08-19 15:34:00,
2013-08-19 11:39:00,75.7,43.8,30.09,North,9,0.0,5.8,32,0.00,,---,0.00,VWS V14.01,2013-08-19 15:39:00,
2013-08-19 11:44:00,76.1,40.7,30.06,East,83,3.1,5.8,28,0.00,,---,0.00,VWS V14.01,2013-08-19 15:44:00,
2013-08-19 11:49:00,76.1,40.7,30.06,East,83,3.1,5.8,28,0.00,,---,0.00,VWS V14.01,2013-08-19 15:49:00,
2013-08-19 11:54:00,76.1,40.7,30.06,East,83,3.1,5.8,28,0.00,,---,0.00,VWS V14.01,2013-08-19 15:54:00,
2013-08-19 11:59:00,77.2,41.6,30.06,NNE,25,4.9,5.8,28,0.00,,---,0.00,VWS V14.01,2013-08-19 15:59:00,
2013-08-19 12:04:00,77.2,41.6,30.06,NNE,25,4.9,5.8,28,0.00,,---,0.00,VWS V14.01,2013-08-19 16:04:00,
2013-08-19 12:09:00,77.2,41.6,30.06,NNE,25,4.9,5.8,28,0.00,,---,0.00,VWS V14.01,2013-08-19 16:09:00,
2013-08-19 12:13:00,78.1,41.4,30.09,SW,223,0.0,5.8,27,0.00,,---,0.00,VWS V14.01,2013-08-19 16:13:00,
2013-08-19 12:15:00,78.1,41.4,30.09,SW,223,0.0,5.8,27,0.00,,---,0.00,VWS V14.01,2013-08-19 16:15:00,
2013-08-19 12:20:00,78.1,41.4,30.09,SW,223,0.0,5.8,27,0.00,,---,0.00,VWS V14.01,2013-08-19 16:20:00,
2013-08-19 12:25:00,78.1,39.4,30.06,NW,325,2.7,2.7,25,0.00,,---,0.00,VWS V14.01,2013-08-19 16:25:00,
2013-08-19 12:29:00,78.1,39.4,30.06,NNW,328,2.7,3.6,25,0.00,,---,0.00,VWS V14.01,2013-08-19 16:29:00,
2013-08-19 12:30:00,78.1,39.4,30.06,NNW,328,2.7,3.6,25,0.00,,---,0.00,VWS V14.01,2013-08-19 16:30:00,
2013-08-19 12:35:00,78.1,39.4,30.06,NNW,328,2.7,3.6,25,0.00,,---,0.00,VWS V14.01,2013-08-19 16:35:00,
2013-08-19 12:42:00,77.4,40.8,30.06,North,351,0.0,3.6,27,0.00,,---,0.00,VWS V14.01,2013-08-19 16:42:00,
2013-08-19 12:44:00,77.5,41.0,30.06,North,351,2.7,3.6,27,0.00,,---,0.00,VWS V14.01,2013-08-19 16:44:00,
2013-08-19 12:47:00,77.5,41.0,30.06,North,351,2.7,3.6,27,0.00,,---,0.00,VWS V14.01,2013-08-19 16:47:00,
2013-08-19 12:52:00,77.5,41.0,30.06,North,351,2.7,3.6,27,0.00,,---,0.00,VWS V14.01,2013-08-19 16:52:00,
2013-08-19 12:57:00,77.2,37.6,30.06,NNE,29,3.6,4.0,24,0.00,,---,0.00,VWS V14.01,2013-08-19 16:57:00,
2013-08-19 13:02:00,77.2,37.6,30.06,NNE,29,3.1,4.0,24,0.00,,---,0.00,VWS V14.01,2013-08-19 17:02:00,
2013-08-19 13:07:00,77.2,37.6,30.06,NNE,29,3.1,4.0,24,0.00,,---,0.00,VWS V14.01,2013-08-19 17:07:00,
2013-08-19 13:12:00,77.5,37.9,30.06,West,272,4.0,4.0,24,0.00,,---,0.00,VWS V14.01,2013-08-19 17:12:00,
2013-08-19 13:18:00,77.9,37.2,30.06,West,280,3.6,6.9,23,0.00,,---,0.00,VWS V14.01,2013-08-19 17:18:00,
2013-08-19 13:23:00,78.3,36.3,30.06,North,356,4.5,6.7,22,0.00,,---,0.00,VWS V14.01,2013-08-19 17:23:00,
2013-08-19 13:28:00,77.9,36.0,30.06,North,0,2.7,4.5,22,0.00,,---,0.00,VWS V14.01,2013-08-19 17:28:00,
2013-08-19 13:33:00,77.9,36.0,30.06,North,0,0.0,4.5,22,0.00,,---,0.00,VWS V14.01,2013-08-19 17:33:00,
2013-08-19 13:38:00,77.9,36.0,30.06,North,0,0.0,4.5,22,0.00,,---,0.00,VWS V14.01,2013-08-19 17:38:00,
2013-08-19 13:43:00,77.9,34.9,30.06,West,262,4.9,6.3,21,0.00,,---,0.00,VWS V14.01,2013-08-19 17:43:00,
2013-08-19 13:48:00,78.3,36.3,30.06,NNE,30,0.0,6.3,22,0.00,,---,0.00,VWS V14.01,2013-08-19 17:48:00,
2013-08-19 13:53:00,77.9,36.0,30.06,NNE,31,3.1,4.5,22,0.00,,---,0.00,VWS V14.01,2013-08-19 17:53:00,
2013-08-19 13:58:00,77.9,37.2,30.06,NNE,30,3.1,4.5,23,0.00,,---,0.00,VWS V14.01,2013-08-19 17:58:00,
2013-08-19 13:59:00,77.9,37.2,30.06,WNW,283,0.0,6.3,23,0.00,,---,0.00,VWS V14.01,2013-08-19 17:59:00,
2013-08-19 14:03:00,77.9,37.2,30.06,WNW,283,0.0,6.3,23,0.00,,---,0.00,VWS V14.01,2013-08-19 18:03:00,
2013-08-19 14:08:00,77.9,37.2,30.06,WNW,283,0.0,6.3,23,0.00,,---,0.00,VWS V14.01,2013-08-19 18:08:00,
2013-08-19 14:13:00,77.9,36.0,30.06,NNW,334,0.0,6.3,22,0.00,,---,0.00,VWS V14.01,2013-08-19 18:13:00,
2013-08-19 14:18:00,77.9,36.0,30.06,NNW,334,0.0,6.3,22,0.00,,---,0.00,VWS V14.01,2013-08-19 18:18:00,
2013-08-19 14:23:00,77.9,36.0,30.06,NNW,334,0.0,6.3,22,0.00,,---,0.00,VWS V14.01,2013-08-19 18:23:00,
2013-08-19 14:28:00,77.5,35.7,30.06,SW,229,0.0,4.5,22,0.00,,---,0.00,VWS V14.01,2013-08-19 18:28:00,
2013-08-19 14:29:00,77.5,35.7,30.06,SW,229,3.1,4.5,22,0.00,,---,0.00,VWS V14.01,2013-08-19 18:29:00,
2013-08-19 14:33:00,77.5,35.7,30.06,SW,229,3.1,4.5,22,0.00,,---,0.00,VWS V14.01,2013-08-19 18:33:00,
2013-08-19 14:38:00,77.5,35.7,30.06,SW,229,3.1,4.5,22,0.00,,---,0.00,VWS V14.01,2013-08-19 18:38:00,
2013-08-19 14:46:00,77.2,36.5,30.06,West,264,4.0,4.5,23,0.00,,---,0.00,VWS V14.01,2013-08-19 18:46:00,
2013-08-19 14:51:00,76.8,36.2,30.06,WNW,284,4.0,6.3,23,0.00,,---,0.00,VWS V14.01,2013-08-19 18:51:00,
2013-08-19 14:56:00,76.6,36.1,30.06,WNW,285,0.0,3.1,23,0.00,,---,0.00,VWS V14.01,2013-08-19 18:56:00,
2013-08-19 14:59:00,76.6,36.1,30.06,WNW,285,2.7,3.6,23,0.00,,---,0.00,VWS V14.01,2013-08-19 18:59:00,
2013-08-19 15:01:00,76.6,36.1,30.06,WNW,285,2.7,3.6,23,0.00,,---,0.00,VWS V14.01,2013-08-19 19:01:00,
2013-08-19 15:06:00,76.6,36.1,30.06,WNW,285,2.7,3.6,23,0.00,,---,0.00,VWS V14.01,2013-08-19 19:06:00,
2013-08-19 15:11:00,76.3,36.9,30.03,NNW,335,0.0,3.6,24,0.00,,---,0.00,VWS V14.01,2013-08-19 19:11:00,
2013-08-19 15:16:00,76.3,36.9,30.03,NNW,335,0.0,3.6,24,0.00,,---,0.00,VWS V14.01,2013-08-19 19:16:00,
2013-08-19 15:21:00,75.7,36.4,30.06,West,267,0.0,4.5,24,0.00,,---,0.00,VWS V14.01,2013-08-19 19:21:00,
2013-08-19 15:26:00,75.6,35.2,30.06,WNW,296,0.0,4.0,23,0.00,,---,0.00,VWS V14.01,2013-08-19 19:26:00,
2013-08-19 15:31:00,75.4,35.0,30.06,WNW,296,0.0,4.9,23,0.00,,---,0.00,VWS V14.01,2013-08-19 19:31:00,
2013-08-19 15:36:00,75.4,35.0,30.03,WNW,301,0.0,4.5,23,0.00,,---,0.00,VWS V14.01,2013-08-19 19:36:00,
2013-08-19 15:41:00,75.4,35.0,30.03,West,275,0.0,4.0,23,0.00,,---,0.00,VWS V14.01,2013-08-19 19:41:00,
2013-08-19 15:46:00,75.4,36.1,30.03,WNW,286,0.0,0.0,24,0.00,,---,0.00,VWS V14.01,2013-08-19 19:46:00,
2013-08-19 15:51:00,75.6,37.3,30.03,NW,308,0.0,0.0,25,0.00,,---,0.00,VWS V14.01,2013-08-19 19:51:00,
2013-08-19 15:56:00,75.6,37.3,30.03,NNW,339,0.0,0.0,25,0.00,,---,0.00,VWS V14.01,2013-08-19 19:56:00,
2013-08-19 16:01:00,75.9,38.6,30.03,NNW,339,0.0,0.0,26,0.00,,---,0.00,VWS V14.01,2013-08-19 20:01:00,
2013-08-19 16:06:00,76.8,39.4,30.03,NW,321,0.0,4.5,26,0.00,,---,0.00,VWS V14.01,2013-08-19 20:06:00,
2013-08-19 16:12:00,77.2,39.7,30.03,WNW,299,0.0,4.0,26,0.00,,---,0.00,VWS V14.01,2013-08-19 20:12:00,
2013-08-19 16:17:00,77.2,40.7,30.03,NNW,341,3.6,4.0,27,0.00,,---,0.00,VWS V14.01,2013-08-19 20:17:00,
2013-08-19 16:22:00,77.7,40.1,30.03,NE,53,0.0,2.7,26,0.00,,---,0.00,VWS V14.01,2013-08-19 20:22:00,
2013-08-19 16:27:00,77.7,39.1,30.03,North,356,4.0,5.8,25,0.00,,---,0.00,VWS V14.01,2013-08-19 20:27:00,
2013-08-19 16:32:00,77.5,37.9,30.03,WNW,290,0.0,4.9,24,0.00,,---,0.00,VWS V14.01,2013-08-19 20:32:00,
2013-08-19 16:37:00,77.0,38.5,30.03,NW,306,0.0,0.0,25,0.00,,---,0.00,VWS V14.01,2013-08-19 20:37:00,
2013-08-19 16:42:00,76.5,39.1,30.03,NW,306,0.0,0.0,26,0.00,,---,0.00,VWS V14.01,2013-08-19 20:42:00,
2013-08-19 16:47:00,76.1,40.7,30.03,NW,306,0.0,0.0,28,0.00,,---,0.00,VWS V14.01,2013-08-19 20:47:00,
2013-08-19 16:52:00,75.9,42.3,30.03,NW,306,0.0,0.0,30,0.00,,---,0.00,VWS V14.01,2013-08-19 20:52:00,
2013-08-19 16:57:00,75.7,43.0,30.03,WNW,299,0.0,0.0,31,0.00,,---,0.00,VWS V14.01,2013-08-19 20:57:00,
2013-08-19 17:02:00,75.6,42.8,30.03,WNW,298,0.0,5.4,31,0.00,,---,0.00,VWS V14.01,2013-08-19 21:02:00,
2013-08-19 17:07:00,75.6,42.8,30.03,WNW,299,0.0,6.3,31,0.00,,---,0.00,VWS V14.01,2013-08-19 21:07:00,
2013-08-19 17:12:00,75.4,42.7,30.03,SW,229,4.5,7.4,31,0.00,,---,0.00,VWS V14.01,2013-08-19 21:12:00,
2013-08-19 17:17:00,75.4,42.7,30.03,WSW,245,0.0,0.0,31,0.00,,---,0.00,VWS V14.01,2013-08-19 21:17:00,
2013-08-19 17:22:00,75.4,42.7,30.03,WSW,240,0.0,6.7,31,0.00,,---,0.00,VWS V14.01,2013-08-19 21:22:00,
2013-08-19 17:27:00,75.4,42.7,30.03,West,264,0.0,0.0,31,0.00,,---,0.00,VWS V14.01,2013-08-19 21:27:00,
2013-08-19 17:32:00,75.2,42.5,30.03,WSW,241,0.0,3.6,31,0.00,,---,0.00,VWS V14.01,2013-08-19 21:32:00,
2013-08-19 17:37:00,75.0,42.4,30.03,West,265,0.0,0.0,31,0.00,,---,0.00,VWS V14.01,2013-08-19 21:37:00,
2013-08-19 17:42:00,75.0,43.2,30.03,WSW,239,0.0,6.3,32,0.00,,---,0.00,VWS V14.01,2013-08-19 21:42:00,
2013-08-19 17:47:00,75.0,43.2,30.03,SW,225,0.0,0.0,32,0.00,,---,0.00,VWS V14.01,2013-08-19 21:47:00,
2013-08-19 17:52:00,74.8,43.0,30.03,SW,220,0.0,0.0,32,0.00,,---,0.00,VWS V14.01,2013-08-19 21:52:00,
2013-08-19 17:57:00,74.8,43.0,30.03,SW,229,0.0,0.0,32,0.00,,---,0.00,VWS V14.01,2013-08-19 21:57:00,
2013-08-19 18:02:00,74.7,43.7,30.03,SW,229,0.0,0.0,33,0.00,,---,0.00,VWS V14.01,2013-08-19 22:02:00,
2013-08-19 18:07:00,74.5,43.5,30.03,SW,229,0.0,0.0,33,0.00,,---,0.00,VWS V14.01,2013-08-19 22:07:00,
2013-08-19 18:12:00,74.5,44.3,30.03,SW,235,0.0,0.0,34,0.00,,---,0.00,VWS V14.01,2013-08-19 22:12:00,
2013-08-19 18:17:00,74.3,44.1,30.03,SW,235,0.0,0.0,34,0.00,,---,0.00,VWS V14.01,2013-08-19 22:17:00,
2013-08-19 18:22:00,74.3,44.9,30.03,SW,235,0.0,0.0,35,0.00,,---,0.00,VWS V14.01,2013-08-19 22:22:00,
2013-08-19 18:27:00,74.3,44.9,30.03,West,260,0.0,7.8,35,0.00,,---,0.00,VWS V14.01,2013-08-19 22:27:00,
2013-08-19 18:32:00,74.3,45.7,30.03,WSW,245,0.0,0.0,36,0.00,,---,0.00,VWS V14.01,2013-08-19 22:32:00,
2013-08-19 18:37:00,74.3,45.7,30.03,WSW,246,0.0,0.0,36,0.00,,---,0.00,VWS V14.01,2013-08-19 22:37:00,
2013-08-19 18:42:00,74.1,45.5,30.03,West,269,0.0,0.0,36,0.00,,---,0.00,VWS V14.01,2013-08-19 22:42:00,
2013-08-19 18:47:00,73.9,46.0,30.03,West,260,0.0,0.0,37,0.00,,---,0.00,VWS V14.01,2013-08-19 22:47:00,
2013-08-19 18:52:00,73.8,46.6,30.03,SW,223,0.0,0.0,38,0.00,,---,0.00,VWS V14.01,2013-08-19 22:52:00,
2013-08-19 18:57:00,73.6,47.1,30.03,SW,227,0.0,4.0,39,0.00,,---,0.00,VWS V14.01,2013-08-19 22:57:00,
2013-08-19 19:02:00,73.6,47.1,30.03,SSW,205,0.0,0.0,39,0.00,,---,0.00,VWS V14.01,2013-08-19 23:02:00,
2013-08-19 19:07:00,73.4,47.6,30.03,WSW,254,2.7,3.1,40,0.00,,---,0.00,VWS V14.01,2013-08-19 23:07:00,
2013-08-19 19:12:00,73.0,48.0,30.03,West,263,0.0,2.7,41,0.00,,---,0.00,VWS V14.01,2013-08-19 23:12:00,
2013-08-19 19:17:00,72.9,47.8,30.03,WSW,251,0.0,3.1,41,0.00,,---,0.00,VWS V14.01,2013-08-19 23:17:00,
2013-08-19 19:22:00,72.7,47.7,30.03,WSW,242,0.0,2.7,41,0.00,,---,0.00,VWS V14.01,2013-08-19 23:22:00,
2013-08-19 19:27:00,72.3,47.3,30.03,WNW,282,3.1,4.5,41,0.00,,---,0.00,VWS V14.01,2013-08-19 23:27:00,
2013-08-19 19:32:00,72.1,47.2,30.03,WSW,242,0.0,4.5,41,0.00,,---,0.00,VWS V14.01,2013-08-19 23:32:00,
2013-08-19 19:37:00,72.1,47.2,30.03,NW,311,0.0,4.0,41,0.00,,---,0.00,VWS V14.01,2013-08-19 23:37:00,
2013-08-19 19:42:00,72.0,47.0,30.03,NW,311,0.0,0.0,41,0.00,,---,0.00,VWS V14.01,2013-08-19 23:42:00,
2013-08-19 19:47:00,71.8,46.8,30.03,West,281,0.0,0.0,41,0.00,,---,0.00,VWS V14.01,2013-08-19 23:47:00,
2013-08-19 19:52:00,71.6,46.7,30.03,WSW,254,0.0,3.6,41,0.00,,---,0.00,VWS V14.01,2013-08-19 23:52:00,
2013-08-19 19:57:00,71.4,46.5,30.03,WSW,252,0.0,2.7,41,0.00,,---,0.00,VWS V14.01,2013-08-19 23:57:00,
2013-08-19 20:02:00,71.2,46.4,30.03,WSW,252,0.0,0.0,41,0.00,,---,0.00,VWS V14.01,2013-08-20 00:02:00,
2013-08-19 20:07:00,71.1,46.2,30.03,WSW,252,0.0,0.0,41,0.00,,---,0.00,VWS V14.01,2013-08-20 00:07:00,
2013-08-19 20:12:00,70.9,46.0,30.03,SW,228,0.0,2.7,41,0.00,,---,0.00,VWS V14.01,2013-08-20 00:12:00,
2013-08-19 20:17:00,70.7,46.5,30.03,SW,228,0.0,2.7,42,0.00,,---,0.00,VWS V14.01,2013-08-20 00:17:00,
2013-08-19 20:22:00,70.5,46.3,30.03,SW,216,0.0,3.6,42,0.00,,---,0.00,VWS V14.01,2013-08-20 00:22:00,
2013-08-19 20:28:00,70.3,46.8,30.03,SW,216,0.0,3.1,43,0.00,,---,0.00,VWS V14.01,2013-08-20 00:28:00,
2013-08-19 20:33:00,70.2,46.6,30.03,SW,216,0.0,2.7,43,0.00,,---,0.00,VWS V14.01,2013-08-20 00:33:00,
2013-08-19 20:38:00,70.2,47.2,30.03,SW,216,0.0,3.1,44,0.00,,---,0.00,VWS V14.01,2013-08-20 00:38:00,
2013-08-19 20:43:00,70.0,47.1,30.03,SW,215,0.0,4.0,44,0.00,,---,0.00,VWS V14.01,2013-08-20 00:43:00,
2013-08-19 20:48:00,70.0,47.7,30.03,SW,216,0.0,3.6,45,0.00,,---,0.00,VWS V14.01,2013-08-20 00:48:00,
2013-08-19 20:53:00,70.0,47.7,30.03,SW,216,3.6,3.6,45,0.00,,---,0.00,VWS V14.01,2013-08-20 00:53:00,
2013-08-19 20:58:00,70.0,48.3,30.03,SW,225,0.0,4.5,46,0.00,,---,0.00,VWS V14.01,2013-08-20 00:58:00,
2013-08-19 21:03:00,70.0,48.3,30.03,SW,225,0.0,3.1,46,0.00,,---,0.00,VWS V14.01,2013-08-20 01:03:00,
2013-08-19 21:08:00,70.0,48.3,30.03,SW,225,0.0,2.7,46,0.00,,---,0.00,VWS V14.01,2013-08-20 01:08:00,
2013-08-19 21:13:00,70.0,48.3,30.03,SW,225,0.0,0.0,46,0.00,,---,0.00,VWS V14.01,2013-08-20 01:13:00,
2013-08-19 21:18:00,69.8,48.7,30.03,SW,225,0.0,3.1,47,0.00,,---,0.00,VWS V14.01,2013-08-20 01:18:00,
2013-08-19 21:23:00,69.8,48.7,30.06,SW,225,0.0,3.6,47,0.00,,---,0.00,VWS V14.01,2013-08-20 01:23:00,
2013-08-19 21:28:00,69.8,49.2,30.06,SW,225,0.0,0.0,48,0.00,,---,0.00,VWS V14.01,2013-08-20 01:28:00,
2013-08-19 21:33:00,69.6,49.6,30.06,SW,225,0.0,0.0,49,0.00,,---,0.00,VWS V14.01,2013-08-20 01:33:00,
2013-08-19 21:38:00,69.4,49.5,30.06,SW,225,0.0,0.0,49,0.00,,---,0.00,VWS V14.01,2013-08-20 01:38:00,
2013-08-19 21:43:00,69.3,49.3,30.06,SW,225,0.0,0.0,49,0.00,,---,0.00,VWS V14.01,2013-08-20 01:43:00,
2013-08-19 21:48:00,69.1,49.7,30.06,SW,225,0.0,0.0,50,0.00,,---,0.00,VWS V14.01,2013-08-20 01:48:00,
2013-08-19 21:53:00,68.9,50.0,30.06,SW,225,0.0,3.1,51,0.00,,---,0.00,VWS V14.01,2013-08-20 01:53:00,
2013-08-19 21:58:00,68.7,50.4,30.06,SW,225,0.0,0.0,52,0.00,,---,0.00,VWS V14.01,2013-08-20 01:58:00,
2013-08-19 22:03:00,68.5,50.8,30.06,SW,225,0.0,0.0,53,0.00,,---,0.00,VWS V14.01,2013-08-20 02:03:00,
2013-08-19 22:08:00,68.5,51.2,30.06,SW,225,0.0,0.0,54,0.00,,---,0.00,VWS V14.01,2013-08-20 02:08:00,
2013-08-19 22:13:00,68.4,51.6,30.06,SW,225,0.0,0.0,55,0.00,,---,0.00,VWS V14.01,2013-08-20 02:13:00,
2013-08-19 22:18:00,68.2,52.4,30.06,SW,225,0.0,3.1,57,0.00,,---,0.00,VWS V14.01,2013-08-20 02:18:00,
2013-08-19 22:23:00,67.8,53.0,30.06,SW,225,0.0,0.0,59,0.00,,---,0.00,VWS V14.01,2013-08-20 02:23:00,
2013-08-19 22:28:00,67.6,53.7,30.06,SW,225,0.0,0.0,61,0.00,,---,0.00,VWS V14.01,2013-08-20 02:28:00,
2013-08-19 22:33:00,67.5,54.4,30.06,SW,225,0.0,2.7,63,0.00,,---,0.00,VWS V14.01,2013-08-20 02:33:00,
2013-08-19 22:38:00,67.3,54.7,30.06,SW,225,0.0,0.0,64,0.00,,---,0.00,VWS V14.01,2013-08-20 02:38:00,
2013-08-19 22:43:00,67.3,55.1,30.06,SW,225,0.0,0.0,65,0.00,,---,0.00,VWS V14.01,2013-08-20 02:43:00,
2013-08-19 22:48:00,67.3,55.5,30.06,SW,225,0.0,0.0,66,0.00,,---,0.00,VWS V14.01,2013-08-20 02:48:00,
2013-08-19 22:53:00,67.3,55.5,30.06,SW,225,0.0,0.0,66,0.00,,---,0.00,VWS V14.01,2013-08-20 02:53:00,
2013-08-19 22:58:00,67.3,55.5,30.06,SW,225,0.0,0.0,66,0.00,,---,0.00,VWS V14.01,2013-08-20 02:58:00,
2013-08-19 23:03:00,67.1,55.8,30.06,SW,225,0.0,0.0,67,0.00,,---,0.00,VWS V14.01,2013-08-20 03:03:00,
2013-08-19 23:08:00,67.1,55.8,30.06,SW,225,0.0,0.0,67,0.00,,---,0.00,VWS V14.01,2013-08-20 03:08:00,
2013-08-19 23:13:00,67.1,56.2,30.06,SW,225,0.0,0.0,68,0.00,,---,0.00,VWS V14.01,2013-08-20 03:13:00,
2013-08-19 23:18:00,67.3,56.4,30.06,SW,225,0.0,0.0,68,0.00,,---,0.00,VWS V14.01,2013-08-20 03:18:00,
2013-08-19 23:23:00,67.3,56.8,30.06,SW,225,0.0,0.0,69,0.00,,---,0.00,VWS V14.01,2013-08-20 03:23:00,
2013-08-19 23:28:00,67.5,57.0,30.06,SW,225,0.0,0.0,69,0.00,,---,0.00,VWS V14.01,2013-08-20 03:28:00,
2013-08-19 23:33:00,67.3,56.8,30.06,SW,225,0.0,0.0,69,0.00,,---,0.00,VWS V14.01,2013-08-20 03:33:00,
2013-08-19 23:38:00,67.3,56.8,30.06,SW,225,0.0,0.0,69,0.00,,---,0.00,VWS V14.01,2013-08-20 03:38:00,
2013-08-19 23:43:00,67.1,56.6,30.06,SW,225,0.0,2.7,69,0.00,,---,0.00,VWS V14.01,2013-08-20 03:43:00,
2013-08-19 23:48:00,67.1,57.0,30.06,SW,225,0.0,0.0,70,0.00,,---,0.00,VWS V14.01,2013-08-20 03:48:00,
2013-08-19 23:53:00,67.1,57.0,30.06,SW,225,3.6,3.6,70,0.00,,---,0.00,VWS V14.01,2013-08-20 03:53:00,
2013-08-19 23:58:00,67.1,57.0,30.06,SW,225,3.1,3.6,70,0.00,,---,0.00,VWS V14.01,2013-08-20 03:58:00,